createdAt,value
2019-01-03T00:00:34.366Z,99483.04
2019-01-03T00:03:21.328Z,99485.40
2019-01-03T00:06:13.091Z,99487.45
2019-01-03T00:09:14.257Z,99492.73
2019-01-03T00:12:02.014Z,99493.77
2019-01-03T00:15:06.504Z,99500.92
2019-01-03T00:17:55.647Z,99498.95
2019-01-03T00:20:48.063Z,99502.45
2019-01-03T00:23:35.652Z,99503.91
2019-01-03T00:26:37.021Z,99507.41
2019-01-03T00:29:26.760Z,99504.81
2019-01-03T00:32:15.995Z,99501.41
2019-01-03T00:35:17.047Z,99508.98
2019-01-03T00:38:04.746Z,99515.36
2019-01-03T00:40:56.691Z,99518.14
2019-01-03T00:44:03.851Z,99518.14
2019-01-03T00:47:10.883Z,99521.53
2019-01-03T00:50:05.180Z,99518.33
2019-01-03T00:52:54.602Z,99512.96
2019-01-03T00:56:01.764Z,99511.62
2019-01-03T00:59:05.625Z,99515.45
2019-01-03T01:01:54.819Z,99521.82
2019-01-03T01:04:49.857Z,99510.97
2019-01-03T01:07:37.455Z,99501.88
2019-01-03T01:10:34.011Z,99507.86
2019-01-03T01:13:23.207Z,99498.80
2019-01-03T01:16:12.569Z,99500.63
2019-01-03T01:19:16.937Z,99503.45
2019-01-03T01:22:06.199Z,99495.50
2019-01-03T01:24:54.134Z,99498.37
2019-01-03T01:27:43.289Z,99494.45
2019-01-03T01:30:31.291Z,99490.86
2019-01-03T01:33:26.581Z,99488.59
2019-01-03T01:36:32.941Z,99490.66
2019-01-03T01:39:28.013Z,99486.34
2019-01-03T01:42:15.851Z,99481.37
2019-01-03T01:45:05.022Z,99473.73
2019-01-03T01:48:04.524Z,99474.13
2019-01-03T01:50:59.790Z,99470.09
2019-01-03T01:53:54.948Z,99476.50
2019-01-03T01:56:44.169Z,99475.89
2019-01-03T01:59:31.823Z,99468.75
2019-01-03T02:02:18.002Z,99472.39
2019-01-03T02:05:05.610Z,99465.35
2019-01-03T02:07:54.923Z,99463.19
2019-01-03T02:10:42.565Z,99466.70
2019-01-03T02:13:41.075Z,99467.03
2019-01-03T02:16:28.776Z,99465.05
2019-01-03T02:19:24.080Z,99461.85
2019-01-03T02:22:20.408Z,99459.78
2019-01-03T02:25:15.497Z,99463.09
2019-01-03T02:28:13.523Z,99454.71
2019-01-03T02:31:01.206Z,99465.35
2019-01-03T02:33:50.388Z,99468.04
2019-01-03T02:36:38.010Z,99461.74
2019-01-03T02:39:30.147Z,99461.84
2019-01-03T02:42:18.109Z,99459.55
2019-01-03T02:45:06.670Z,99463.58
2019-01-03T02:47:54.543Z,99464.20
2019-01-03T02:50:46.736Z,99457.28
2019-01-03T02:53:35.926Z,99453.79
2019-01-03T02:56:23.607Z,99449.34
2019-01-03T02:59:02.802Z,99457.00
2019-01-03T03:02:04.201Z,99459.36
2019-01-03T03:05:05.420Z,99453.47
2019-01-03T03:07:57.507Z,99451.83
2019-01-03T03:10:45.189Z,99448.61
2019-01-03T03:13:43.447Z,99454.70
2019-01-03T03:16:41.919Z,99452.53
2019-01-03T03:19:37.104Z,99448.61
2019-01-03T03:22:22.231Z,99460.88
2019-01-03T03:25:11.454Z,99456.56
2019-01-03T03:27:58.832Z,99448.81
2019-01-03T03:30:57.149Z,99456.34
2019-01-03T03:34:04.586Z,99453.16
2019-01-03T03:37:02.662Z,99454.99
2019-01-03T03:39:54.596Z,99464.92
2019-01-03T03:42:45.190Z,99469.57
2019-01-03T03:45:33.067Z,99481.34
2019-01-03T03:48:22.339Z,99484.51
2019-01-03T03:51:20.337Z,99488.63
2019-01-03T03:54:09.556Z,99496.30
2019-01-03T03:56:57.149Z,99499.17
2019-01-03T03:59:46.376Z,99496.59
2019-01-03T04:02:34.117Z,99491.93
2019-01-03T04:05:21.987Z,99496.57
2019-01-03T04:08:24.133Z,99501.96
2019-01-03T04:11:11.728Z,99504.02
2019-01-03T04:14:16.234Z,99514.46
2019-01-03T04:17:08.398Z,99520.55
2019-01-03T04:20:04.514Z,99523.05
2019-01-03T04:22:52.163Z,99522.09
2019-01-03T04:25:47.624Z,99528.42
2019-01-03T04:28:36.825Z,99527.79
2019-01-03T04:31:19.561Z,99531.19
2019-01-03T04:34:16.036Z,99539.33
2019-01-03T04:37:05.220Z,99542.98
2019-01-03T04:40:06.537Z,99544.00
2019-01-03T04:42:55.761Z,99547.33
2019-01-03T04:46:03.279Z,99547.56
2019-01-03T04:49:01.245Z,99547.76
2019-01-03T04:52:08.139Z,99548.50
2019-01-03T04:55:00.251Z,99551.44
2019-01-03T04:57:49.436Z,99552.59
2019-01-03T05:00:47.757Z,99556.34
2019-01-03T05:03:42.799Z,99556.42
2019-01-03T05:06:30.377Z,99554.58
2019-01-03T05:09:34.151Z,99561.38
2019-01-03T05:12:25.432Z,99562.41
2019-01-03T05:15:20.473Z,99566.36
2019-01-03T05:18:09.730Z,99568.41
2019-01-03T05:20:58.957Z,99572.44
2019-01-03T05:23:47.670Z,99579.99
2019-01-03T05:26:35.392Z,99577.65
2019-01-03T05:29:23.063Z,99574.34
2019-01-03T05:32:10.612Z,99571.04
2019-01-03T05:35:08.969Z,99568.68
2019-01-03T05:37:56.726Z,99565.38
2019-01-03T05:40:46.021Z,99569.80
2019-01-03T05:43:50.193Z,99571.47
2019-01-03T05:46:34.642Z,99565.38
2019-01-03T05:49:22.588Z,99568.16
2019-01-03T05:52:14.602Z,99582.73
2019-01-03T05:55:15.864Z,99579.52
2019-01-03T05:58:20.008Z,99583.45
2019-01-03T06:01:09.254Z,99590.67
2019-01-03T06:04:01.315Z,99590.67
2019-01-03T06:06:53.565Z,99589.92
2019-01-03T06:09:35.514Z,99593.14
2019-01-03T06:12:24.769Z,99592.76
2019-01-03T06:15:17.009Z,99598.84
2019-01-03T06:18:09.046Z,99604.42
2019-01-03T06:20:56.686Z,99609.70
2019-01-03T06:24:01.138Z,99605.16
2019-01-03T06:26:48.788Z,99513.73
2019-01-03T06:29:41.070Z,99604.78
2019-01-03T06:32:39.362Z,99602.63
2019-01-03T06:35:27.083Z,99602.63
2019-01-03T06:38:15.120Z,99608.39
2019-01-03T06:41:19.604Z,99617.41
2019-01-03T06:44:24.173Z,99620.62
2019-01-03T06:47:13.475Z,99623.30
2019-01-03T06:50:01.330Z,99621.20
2019-01-03T06:52:49.317Z,99628.58
2019-01-03T06:55:47.708Z,99618.66
2019-01-03T06:58:39.942Z,99621.05
2019-01-03T07:01:27.814Z,99629.73
2019-01-03T07:04:17.037Z,99646.59
2019-01-03T07:07:15.277Z,99659.34
2019-01-03T07:10:07.331Z,99666.17
2019-01-03T07:12:55.141Z,99668.56
2019-01-03T07:15:42.909Z,99680.14
2019-01-03T07:18:44.385Z,99688.00
2019-01-03T07:21:30.045Z,99685.70
2019-01-03T07:24:31.215Z,99689.13
2019-01-03T07:27:18.788Z,99682.73
2019-01-03T07:30:10.851Z,99683.44
2019-01-03T07:33:05.845Z,99688.41
2019-01-03T07:35:53.722Z,99686.13
2019-01-03T07:39:01.112Z,99695.44
2019-01-03T07:41:59.168Z,99696.06
2019-01-03T07:44:48.405Z,99695.85
2019-01-03T07:47:55.649Z,99698.45
2019-01-03T07:50:42.383Z,99698.36
2019-01-03T07:53:29.843Z,99701.88
2019-01-03T07:56:17.417Z,99692.92
2019-01-03T07:59:21.602Z,99693.49
2019-01-03T08:02:25.560Z,99696.48
2019-01-03T08:05:14.761Z,99703.27
2019-01-03T08:08:13.157Z,99701.14
2019-01-03T08:11:09.653Z,99694.84
2019-01-03T08:14:01.603Z,99697.38
2019-01-03T08:16:53.583Z,99701.33
2019-01-03T08:19:55.141Z,99691.83
2019-01-03T08:22:50.233Z,99689.59
2019-01-03T08:25:45.296Z,99695.59
2019-01-03T08:28:43.467Z,99692.39
2019-01-03T08:31:35.801Z,99698.60
2019-01-03T08:34:27.906Z,99702.22
2019-01-03T08:37:15.491Z,99704.38
2019-01-03T08:40:04.694Z,99703.67
2019-01-03T08:42:52.269Z,99709.12
2019-01-03T08:45:41.494Z,99707.30
2019-01-03T08:48:32.634Z,99702.82
2019-01-03T08:51:39.865Z,99705.69
2019-01-03T08:54:27.551Z,99693.63
2019-01-03T08:57:31.967Z,99704.69
2019-01-03T09:00:30.217Z,99697.55
2019-01-03T09:03:19.413Z,99688.58
2019-01-03T09:06:11.574Z,99694.80
2019-01-03T09:09:00.842Z,99690.73
2019-01-03T09:11:56.240Z,99685.86
2019-01-03T09:15:03.396Z,99682.36
2019-01-03T09:17:52.602Z,99691.01
2019-01-03T09:20:40.392Z,99681.35
2019-01-03T09:23:28.224Z,99675.54
2019-01-03T09:26:17.423Z,99673.52
2019-01-03T09:29:05.167Z,99673.52
2019-01-03T09:32:09.340Z,99666.45
2019-01-03T09:35:01.617Z,99660.14
2019-01-03T09:38:06.179Z,99660.14
2019-01-03T09:41:01.191Z,99666.78
2019-01-03T09:43:48.813Z,99666.38
2019-01-03T09:46:19.292Z,99661.80
2019-01-03T09:48:49.654Z,99655.25
2019-01-03T09:51:20.047Z,99658.44
2019-01-03T09:53:50.387Z,99521.45
2019-01-03T09:56:21.230Z,99655.88
2019-01-03T09:58:51.602Z,99647.59
2019-01-03T10:01:21.910Z,99646.98
2019-01-03T10:03:52.309Z,99648.73
2019-01-03T10:06:22.752Z,99639.75
2019-01-03T10:08:53.118Z,99632.08
2019-01-03T10:11:23.493Z,99632.08
2019-01-03T10:13:54.806Z,99628.34
2019-01-03T10:16:25.309Z,99620.73
2019-01-03T10:18:55.849Z,99624.58
2019-01-03T10:21:26.264Z,99633.14
2019-01-03T10:23:56.689Z,99623.89
2019-01-03T10:26:27.240Z,99630.71
2019-01-03T10:28:57.595Z,99622.75
2019-01-03T10:31:27.999Z,99622.75
2019-01-03T10:33:58.294Z,99621.21
2019-01-03T10:36:28.605Z,99618.97
2019-01-03T10:38:58.973Z,99611.02
2019-01-03T10:41:29.327Z,99613.47
2019-01-03T10:43:59.699Z,99612.91
2019-01-03T10:46:30.114Z,99612.30
2019-01-03T10:49:00.547Z,99605.69
2019-01-03T10:51:30.960Z,99611.70
2019-01-03T10:54:01.348Z,99599.75
2019-01-03T10:56:31.722Z,99589.42
2019-01-03T10:59:02.114Z,99573.17
2019-01-03T11:01:32.487Z,99580.74
2019-01-03T11:04:02.869Z,99575.34
2019-01-03T11:06:33.288Z,99579.07
2019-01-03T11:09:04.037Z,99574.71
2019-01-03T11:11:34.781Z,99578.67
2019-01-03T11:14:05.167Z,99571.76
2019-01-03T11:16:35.531Z,99576.22
2019-01-03T11:19:05.822Z,99568.27
2019-01-03T11:21:36.252Z,99560.90
2019-01-03T11:24:06.567Z,99560.39
2019-01-03T11:26:36.982Z,99568.47
2019-01-03T11:29:07.332Z,99560.90
2019-01-03T11:31:37.748Z,99551.81
2019-01-03T11:34:08.164Z,99543.03
2019-01-03T11:36:38.533Z,99547.88
2019-01-03T11:39:09.135Z,99543.83
2019-01-03T11:41:39.490Z,99543.53
2019-01-03T11:44:09.869Z,99544.66
2019-01-03T11:46:40.177Z,99544.14
2019-01-03T11:49:10.544Z,99541.80
2019-01-03T11:51:40.971Z,99536.41
2019-01-03T11:54:11.382Z,99531.13
2019-01-03T11:56:41.759Z,99534.10
2019-01-03T11:59:12.185Z,99524.72
2019-01-03T12:01:42.545Z,99529.70
2019-01-03T12:04:12.956Z,99527.42
2019-01-03T12:06:43.297Z,99520.48
2019-01-03T12:09:13.601Z,99517.80
2019-01-03T12:11:44.017Z,99512.83
2019-01-03T12:14:14.331Z,99518.21
2019-01-03T12:16:44.713Z,99524.84
2019-01-03T12:19:15.204Z,99521.10
2019-01-03T12:21:45.651Z,99513.02
2019-01-03T12:24:15.912Z,99512.53
2019-01-03T12:26:46.304Z,99508.08
2019-01-03T12:29:16.713Z,99515.13
2019-01-03T12:31:47.093Z,99513.98
2019-01-03T12:34:17.441Z,99516.96
2019-01-03T12:36:47.820Z,99513.56
2019-01-03T12:39:18.224Z,99529.48
2019-01-03T12:41:48.613Z,99532.48
2019-01-03T12:44:18.980Z,99406.00
2019-01-03T12:46:49.320Z,99528.33
2019-01-03T12:49:19.713Z,99406.58
2019-01-03T12:51:50.048Z,99527.91
2019-01-03T12:54:20.423Z,99528.41
2019-01-03T12:56:50.924Z,99532.24
2019-01-03T12:59:21.315Z,99531.82
2019-01-03T13:01:51.828Z,99534.80
2019-01-03T13:04:22.187Z,99534.59
2019-01-03T13:06:52.718Z,99537.39
2019-01-03T13:09:23.166Z,99529.03
2019-01-03T13:11:53.605Z,99520.13
2019-01-03T13:14:23.949Z,99509.28
2019-01-03T13:16:54.276Z,99511.77
2019-01-03T13:19:24.604Z,99512.06
2019-01-03T13:21:54.938Z,99520.83
2019-01-03T13:24:25.329Z,99523.13
2019-01-03T13:26:55.729Z,99527.78
2019-01-03T13:29:26.156Z,99524.56
2019-01-03T13:31:56.498Z,99517.33
2019-01-03T13:34:26.917Z,99519.58
2019-01-03T13:36:57.356Z,99524.33
2019-01-03T13:39:27.692Z,99522.70
2019-01-03T13:41:58.061Z,99529.65
2019-01-03T13:44:28.620Z,99539.16
2019-01-03T13:46:58.966Z,99543.70
2019-01-03T13:49:29.282Z,99549.98
2019-01-03T13:51:59.660Z,99548.45
2019-01-03T13:54:30.079Z,99541.02
2019-01-03T13:57:00.395Z,99534.50
2019-01-03T13:59:30.760Z,99533.06
2019-01-03T14:02:01.121Z,99531.33
2019-01-03T14:04:31.493Z,99526.77
2019-01-03T14:07:01.793Z,99518.39
2019-01-03T14:09:32.128Z,99524.38
2019-01-03T14:12:02.462Z,99528.31
2019-01-03T14:14:32.929Z,99529.98
2019-01-03T14:17:03.266Z,99529.75
2019-01-03T14:19:33.636Z,99412.27
2019-01-03T14:22:03.933Z,99528.64
2019-01-03T14:24:34.293Z,99526.47
2019-01-03T14:27:04.759Z,99532.97
2019-01-03T14:29:35.107Z,99534.41
2019-01-03T14:32:05.509Z,99534.20
2019-01-03T14:34:35.879Z,99514.69
2019-01-03T14:37:06.315Z,99540.30
2019-01-03T14:39:36.707Z,99542.27
2019-01-03T14:42:07.094Z,99538.34
2019-01-03T14:44:37.410Z,99538.70
2019-01-03T14:47:07.757Z,99537.46
2019-01-03T14:49:38.094Z,99535.96
2019-01-03T14:52:08.557Z,99528.61
2019-01-03T14:54:38.896Z,99533.78
2019-01-03T14:57:09.229Z,99532.53
2019-01-03T14:59:40.267Z,99530.73
2019-01-03T15:02:10.609Z,99533.00
2019-01-03T15:04:40.959Z,99521.69
2019-01-03T15:07:11.297Z,99522.81
2019-01-03T15:09:41.671Z,99510.85
2019-01-03T15:12:12.017Z,99520.22
2019-01-03T15:14:42.327Z,99517.20
2019-01-03T15:17:12.752Z,99516.91
2019-01-03T15:19:43.242Z,99515.54
2019-01-03T15:22:13.601Z,99515.54
2019-01-03T15:24:44.072Z,99515.08
2019-01-03T15:27:14.503Z,99518.27
2019-01-03T15:29:46.359Z,99513.21
2019-01-03T15:32:16.716Z,99513.21
2019-01-03T15:34:47.019Z,99512.28
2019-01-03T15:37:17.442Z,99519.93
2019-01-03T15:39:50.742Z,99516.13
2019-01-03T15:42:21.131Z,99520.27
2019-01-03T15:44:51.547Z,99529.63
2019-01-03T15:47:53.340Z,99529.63
2019-01-03T15:50:23.673Z,99532.80
2019-01-03T15:52:54.017Z,99530.89
2019-01-03T15:55:24.311Z,99527.95
2019-01-03T15:57:54.701Z,99525.61
2019-01-03T16:00:25.002Z,99527.33
2019-01-03T16:02:55.373Z,99528.21
2019-01-03T16:05:25.784Z,99530.83
2019-01-03T16:07:56.163Z,99531.80
2019-01-03T16:10:26.549Z,99533.33
2019-01-03T16:12:56.926Z,99527.03
2019-01-03T16:15:27.267Z,99531.48
2019-01-03T16:17:57.574Z,99532.64
2019-01-03T16:20:27.926Z,99532.23
2019-01-03T16:22:58.250Z,99539.53
2019-01-03T16:25:28.619Z,99542.05
2019-01-03T16:27:59.022Z,99542.05
2019-01-03T16:30:29.393Z,99544.25
2019-01-03T16:32:59.754Z,99542.44
2019-01-03T16:35:30.275Z,99543.42
2019-01-03T16:38:00.643Z,99543.56
2019-01-03T16:40:30.977Z,99542.22
2019-01-03T16:43:01.382Z,99540.94
2019-01-03T16:45:31.707Z,99546.13
2019-01-03T16:48:02.038Z,99550.10
2019-01-03T16:50:32.349Z,99547.70
2019-01-03T16:53:02.736Z,99547.70
2019-01-03T16:55:33.117Z,99551.20
2019-01-03T16:58:03.459Z,99551.94
2019-01-03T17:00:33.841Z,99552.98
2019-01-03T17:03:04.138Z,99555.77
2019-01-03T17:05:34.480Z,99560.84
2019-01-03T17:08:04.851Z,99555.39
2019-01-03T17:10:35.192Z,99550.41
2019-01-03T17:13:05.526Z,99555.16
2019-01-03T17:15:35.859Z,99558.09
2019-01-03T17:18:06.241Z,99559.25
2019-01-03T17:20:36.615Z,99547.80
2019-01-03T17:23:06.961Z,99547.80
2019-01-03T17:25:37.278Z,99540.23
2019-01-03T17:28:07.663Z,99545.11
2019-01-03T17:30:38.142Z,99548.59
2019-01-03T17:33:08.558Z,99548.59
2019-01-03T17:35:38.893Z,99546.04
2019-01-03T17:38:09.252Z,99547.19
2019-01-03T17:40:39.663Z,99551.41
2019-01-03T17:43:10.002Z,99551.41
2019-01-03T17:45:40.333Z,99545.83
2019-01-03T17:48:10.688Z,99549.02
2019-01-03T17:50:41.017Z,99543.23
2019-01-03T17:53:11.358Z,99541.66
2019-01-03T17:55:41.715Z,99541.66
2019-01-03T17:58:12.099Z,99552.63
2019-01-03T18:00:44.437Z,99540.82
2019-01-03T18:03:14.781Z,99552.02
2019-01-03T18:05:45.161Z,99533.59
2019-01-03T18:08:15.628Z,99545.50
2019-01-03T18:10:46.037Z,99545.50
2019-01-03T18:13:16.371Z,99547.55
2019-01-03T18:15:46.712Z,99548.59
2019-01-03T18:18:17.727Z,99552.89
2019-01-03T18:20:48.078Z,99578.44
2019-01-03T18:23:18.455Z,99546.98
2019-01-03T18:25:48.839Z,99548.45
2019-01-03T18:28:19.201Z,99551.13
2019-01-03T18:30:49.623Z,99555.59
2019-01-03T18:33:19.968Z,99547.93
2019-01-03T18:35:50.344Z,99560.78
2019-01-03T18:38:20.729Z,99551.43
2019-01-03T18:40:51.067Z,99563.95
2019-01-03T18:43:21.689Z,99547.38
2019-01-03T18:45:52.063Z,99555.53
2019-01-03T18:48:22.436Z,99555.33
2019-01-03T18:50:52.769Z,99566.67
2019-01-03T18:53:23.115Z,99576.56
2019-01-03T18:55:53.491Z,99566.94
2019-01-03T18:58:24.152Z,99573.70
2019-01-03T19:00:54.451Z,99575.61
2019-01-03T19:03:24.817Z,99577.95
2019-01-03T19:05:55.184Z,99585.97
2019-01-03T19:08:25.591Z,99587.31
2019-01-03T19:10:55.921Z,99578.45
2019-01-03T19:13:26.337Z,99577.55
2019-01-03T19:15:56.742Z,99583.63
2019-01-03T19:18:27.127Z,99582.82
2019-01-03T19:20:57.457Z,99583.46
2019-01-03T19:23:27.813Z,99573.18
2019-01-03T19:25:58.413Z,99581.85
2019-01-03T19:28:28.752Z,99581.23
2019-01-03T19:30:59.046Z,99591.59
2019-01-03T19:33:29.416Z,99593.02
2019-01-03T19:35:59.787Z,99597.41
2019-01-03T19:38:30.083Z,99593.47
2019-01-03T19:41:00.453Z,99599.08
2019-01-03T19:43:30.759Z,99595.89
2019-01-03T19:46:01.097Z,99595.89
2019-01-03T19:48:31.513Z,99603.06
2019-01-03T19:51:01.840Z,99603.13
2019-01-03T19:53:32.200Z,99594.95
2019-01-03T19:56:02.614Z,99598.09
2019-01-03T19:58:32.985Z,99597.21
2019-01-03T20:01:03.400Z,99596.52
2019-01-03T20:03:35.371Z,99596.45
2019-01-03T20:06:07.148Z,99599.42
2019-01-03T20:08:37.416Z,99596.93
2019-01-03T20:11:07.816Z,99604.79
2019-01-03T20:13:38.251Z,99611.00
2019-01-03T20:16:08.593Z,99609.14
2019-01-03T20:18:38.957Z,99609.96
2019-01-03T20:21:09.367Z,99617.60
2019-01-03T20:23:39.687Z,99613.03
2019-01-03T20:26:10.027Z,99619.39
2019-01-03T20:28:40.367Z,99616.08
2019-01-03T20:31:10.718Z,99614.86
2019-01-03T20:33:41.055Z,99621.64
2019-01-03T20:36:11.395Z,99630.01
2019-01-03T20:38:41.726Z,99620.82
2019-01-03T20:41:13.438Z,99628.97
2019-01-03T20:43:43.783Z,99623.19
2019-01-03T20:46:14.162Z,99623.39
2019-01-03T20:48:44.525Z,99623.47
2019-01-03T20:51:14.930Z,99620.82
2019-01-03T20:53:45.258Z,99629.03
2019-01-03T20:56:15.592Z,99619.59
2019-01-03T20:58:45.992Z,99617.14
2019-01-03T21:01:16.320Z,99615.70
2019-01-03T21:03:46.728Z,99614.38
2019-01-03T21:06:17.113Z,99608.88
2019-01-03T21:08:47.535Z,99616.14
2019-01-03T21:11:17.867Z,99622.70
2019-01-03T21:13:48.212Z,99617.70
2019-01-03T21:16:18.506Z,99617.70
2019-01-03T21:18:48.843Z,99626.94
2019-01-03T21:21:19.179Z,99627.20
2019-01-03T21:23:49.500Z,99624.39
2019-01-03T21:26:19.902Z,99624.14
2019-01-03T21:28:50.280Z,99617.75
2019-01-03T21:31:20.708Z,99620.72
2019-01-03T21:33:51.094Z,99628.15
2019-01-03T21:36:21.520Z,99626.78
2019-01-03T21:38:51.929Z,99632.78
2019-01-03T21:41:22.276Z,99631.74
2019-01-03T21:43:52.604Z,99631.74
2019-01-03T21:46:22.980Z,99635.20
2019-01-03T21:48:53.352Z,99645.03
2019-01-03T21:51:23.823Z,99638.48
2019-01-03T21:53:54.180Z,99639.46
2019-01-03T21:56:24.578Z,99650.20
2019-01-03T21:58:54.989Z,99655.86
2019-01-03T22:01:25.317Z,99647.02
2019-01-03T22:03:55.676Z,99662.45
2019-01-03T22:06:26.039Z,99664.22
2019-01-03T22:08:56.366Z,99665.35
2019-01-03T22:11:26.669Z,99667.84
2019-01-03T22:13:57.003Z,99669.23
2019-01-03T22:16:27.383Z,99686.05
2019-01-03T22:18:57.670Z,99686.05
2019-01-03T22:21:28.038Z,99686.48
2019-01-03T22:23:58.331Z,99686.48
2019-01-03T22:26:28.698Z,99696.67
2019-01-03T22:28:59.076Z,99689.45
2019-01-03T22:31:30.295Z,99674.91
2019-01-03T22:34:00.633Z,99702.00
2019-01-03T22:36:31.013Z,99697.48
2019-01-03T22:39:01.360Z,99706.86
2019-01-03T22:41:31.693Z,99699.21
2019-01-03T22:44:02.023Z,99697.19
2019-01-03T22:46:32.394Z,99711.28
2019-01-03T22:49:02.755Z,99707.33
2019-01-03T22:51:33.090Z,99697.73
2019-01-03T22:54:03.503Z,99708.47
2019-01-03T22:56:33.869Z,99711.87
2019-01-03T22:59:04.231Z,99702.52
2019-01-03T23:01:34.753Z,99727.44
2019-01-03T23:04:05.182Z,99727.44
2019-01-03T23:06:35.560Z,99722.71
2019-01-03T23:09:06.908Z,99722.71
2019-01-03T23:11:37.277Z,99731.00
2019-01-03T23:14:07.639Z,99720.13
2019-01-03T23:16:37.934Z,99721.20
2019-01-03T23:19:08.278Z,99735.14
2019-01-03T23:21:38.663Z,99732.13
2019-01-03T23:24:08.956Z,99736.00
2019-01-03T23:26:39.324Z,99734.94
2019-01-03T23:29:09.793Z,99747.12
2019-01-03T23:31:40.197Z,99747.12
2019-01-03T23:34:10.578Z,99752.28
2019-01-03T23:36:40.875Z,99743.16
2019-01-03T23:39:11.257Z,99742.38
2019-01-03T23:41:41.558Z,99741.22
2019-01-03T23:44:12.004Z,99735.22
2019-01-03T23:46:42.339Z,99735.22
2019-01-03T23:49:12.859Z,99751.30
2019-01-03T23:51:43.365Z,99750.20
2019-01-03T23:54:13.701Z,99750.20
2019-01-03T23:56:44.180Z,99748.36
2019-01-03T23:59:14.515Z,99748.36
